createdAt,value
2022-10-18T00:00:22.034Z,101481.13
2022-10-18T00:02:49.059Z,101484.16
2022-10-18T00:05:16.096Z,101491.97
2022-10-18T00:07:43.022Z,101493.28
2022-10-18T00:10:10.469Z,101486.44
2022-10-18T00:12:37.884Z,101487.91
2022-10-18T00:15:07.412Z,101492.09
2022-10-18T00:17:35.900Z,101486.25
2022-10-18T00:20:03.224Z,101483.88
2022-10-18T00:22:30.534Z,101487.59
2022-10-18T00:24:57.934Z,101476.56
2022-10-18T00:27:25.053Z,101475.06
2022-10-18T00:29:54.821Z,101476.09
2022-10-18T00:32:21.861Z,101476.00
2022-10-18T00:34:48.935Z,101472.56
2022-10-18T00:37:15.974Z,101468.50
2022-10-18T00:39:43.160Z,101467.84
2022-10-18T00:42:18.739Z,101465.78
2022-10-18T00:44:45.648Z,101467.19
2022-10-18T00:47:16.496Z,101463.66
2022-10-18T00:49:47.972Z,101455.31
2022-10-18T00:52:21.899Z,101461.72
2022-10-18T00:54:52.082Z,101458.91
2022-10-18T00:57:19.244Z,101448.91
2022-10-18T00:59:46.763Z,101454.84
2022-10-18T01:02:18.500Z,101453.53
2022-10-18T01:04:46.557Z,101448.91
2022-10-18T01:07:22.358Z,101454.31
2022-10-18T01:10:04.593Z,101446.94
2022-10-18T01:13:10.702Z,101443.81
2022-10-18T01:15:52.937Z,101434.69
2022-10-18T01:18:34.152Z,101437.13
2022-10-18T01:21:33.249Z,101433.75
2022-10-18T01:24:46.135Z,101426.53
2022-10-18T01:27:50.435Z,101427.75
2022-10-18T01:30:32.567Z,101423.53
2022-10-18T01:33:16.312Z,101414.56
2022-10-18T01:35:49.305Z,101409.53
2022-10-18T01:38:19.629Z,101407.03
2022-10-18T01:40:49.902Z,101412.31
2022-10-18T01:43:18.613Z,101419.75
2022-10-18T01:45:46.389Z,101413.91
2022-10-18T01:48:14.602Z,101404.78
2022-10-18T01:50:42.124Z,101409.19
2022-10-18T01:53:23.629Z,101399.13
2022-10-18T01:56:22.591Z,101397.47
2022-10-18T01:58:52.505Z,101396.25
2022-10-18T02:01:41.238Z,101396.81
2022-10-18T02:04:30.428Z,101396.53
2022-10-18T02:07:17.609Z,101397.47
2022-10-18T02:09:52.159Z,101401.72
2022-10-18T02:12:20.683Z,101400.88
2022-10-18T02:14:49.744Z,101405.06
2022-10-18T02:17:18.690Z,101399.88
2022-10-18T02:19:54.189Z,101403.75
2022-10-18T02:22:26.313Z,101405.63
2022-10-18T02:24:56.363Z,101406.16
2022-10-18T02:27:23.277Z,101404.47
2022-10-18T02:29:51.167Z,101402.81
2022-10-18T02:32:49.686Z,101403.63
2022-10-18T02:35:23.748Z,101393.91
2022-10-18T02:37:52.584Z,101395.19
2022-10-18T02:40:20.053Z,101389.00
2022-10-18T02:42:50.944Z,101388.16
2022-10-18T02:45:18.286Z,101387.50
2022-10-18T02:47:45.269Z,101393.41
2022-10-18T02:50:13.387Z,101388.63
2022-10-18T02:52:40.345Z,101397.88
2022-10-18T02:55:08.471Z,101393.34
2022-10-18T02:57:36.109Z,101392.00
2022-10-18T03:00:05.749Z,101387.19
2022-10-18T03:02:32.910Z,101385.03
2022-10-18T03:04:59.964Z,101384.84
2022-10-18T03:07:27.243Z,101390.78
2022-10-18T03:09:54.232Z,101390.47
2022-10-18T03:12:21.223Z,101388.63
2022-10-18T03:14:49.348Z,101387.13
2022-10-18T03:17:16.347Z,101395.53
2022-10-18T03:19:43.336Z,101400.09
2022-10-18T03:22:10.279Z,101398.06
2022-10-18T03:24:37.246Z,101394.22
2022-10-18T03:27:04.400Z,101395.59
2022-10-18T03:29:31.413Z,101390.22
2022-10-18T03:31:58.335Z,101396.38
2022-10-18T03:34:25.349Z,101396.72
2022-10-18T03:36:52.380Z,101394.56
2022-10-18T03:39:19.398Z,101393.75
2022-10-18T03:41:46.415Z,101386.50
2022-10-18T03:44:13.354Z,101386.34
2022-10-18T03:46:40.361Z,101385.84
2022-10-18T03:49:07.437Z,101388.91
2022-10-18T03:51:34.403Z,101381.66
2022-10-18T03:54:01.376Z,101388.38
2022-10-18T03:56:28.357Z,101387.00
2022-10-18T03:58:55.294Z,101383.59
2022-10-18T04:01:22.295Z,101379.41
2022-10-18T04:03:49.401Z,101384.31
2022-10-18T04:06:16.494Z,101387.03
2022-10-18T04:08:43.492Z,101384.06
2022-10-18T04:11:11.309Z,101385.22
2022-10-18T04:13:38.736Z,101383.38
2022-10-18T04:16:06.066Z,101385.91
2022-10-18T04:18:33.143Z,101391.28
2022-10-18T04:21:00.103Z,101389.81
2022-10-18T04:23:39.699Z,101395.00
2022-10-18T04:26:13.207Z,101391.50
2022-10-18T04:28:48.030Z,101386.00
2022-10-18T04:31:15.059Z,101392.19
2022-10-18T04:33:42.028Z,101396.56
2022-10-18T04:36:09.072Z,101395.53
2022-10-18T04:38:36.071Z,101394.13
2022-10-18T04:41:03.122Z,101390.75
2022-10-18T04:43:30.099Z,101384.56
2022-10-18T04:45:57.182Z,101395.78
2022-10-18T04:48:24.304Z,101394.66
2022-10-18T04:50:52.715Z,101391.47
2022-10-18T04:53:19.687Z,101392.03
2022-10-18T04:55:49.136Z,101389.13
2022-10-18T04:58:19.753Z,101395.84
2022-10-18T05:00:47.908Z,101385.78
2022-10-18T05:03:15.405Z,101389.19
2022-10-18T05:06:00.966Z,101387.94
2022-10-18T05:08:30.174Z,101386.81
2022-10-18T05:10:57.277Z,101392.03
2022-10-18T05:13:24.545Z,101387.03
2022-10-18T05:15:51.618Z,101387.50
2022-10-18T05:18:18.803Z,101390.56
2022-10-18T05:20:47.014Z,101390.53
2022-10-18T05:23:13.971Z,101394.88
2022-10-18T05:25:42.362Z,101379.94
2022-10-18T05:28:34.004Z,101383.16
2022-10-18T05:31:04.716Z,101391.59
2022-10-18T05:33:32.325Z,101395.78
2022-10-18T05:35:59.768Z,101380.69
2022-10-18T05:38:27.069Z,101385.16
2022-10-18T05:40:54.024Z,101386.16
2022-10-18T05:43:22.047Z,101395.03
2022-10-18T05:45:52.098Z,101384.94
2022-10-18T05:48:19.219Z,101392.03
2022-10-18T05:50:46.379Z,101380.97
2022-10-18T05:53:35.078Z,101387.53
2022-10-18T05:56:03.764Z,101386.06
2022-10-18T05:58:30.851Z,101385.69
2022-10-18T06:01:02.474Z,101387.28
2022-10-18T06:03:31.178Z,101381.53
2022-10-18T06:06:05.069Z,101377.56
2022-10-18T06:08:32.699Z,101376.59
2022-10-18T06:11:00.051Z,101368.13
2022-10-18T06:13:29.076Z,101379.47
2022-10-18T06:15:58.338Z,101371.75
2022-10-18T06:18:25.397Z,101376.59
2022-10-18T06:20:59.682Z,101378.16
2022-10-18T06:23:28.130Z,101381.59
2022-10-18T06:26:02.790Z,101382.78
2022-10-18T06:28:30.899Z,101380.81
2022-10-18T06:30:58.518Z,101390.63
2022-10-18T06:33:25.948Z,101383.00
2022-10-18T06:35:56.767Z,101380.16
2022-10-18T06:38:24.151Z,101378.69
2022-10-18T06:40:51.269Z,101382.38
2022-10-18T06:43:21.563Z,101381.16
2022-10-18T06:45:49.525Z,101384.00
2022-10-18T06:48:17.363Z,101387.22
2022-10-18T06:50:52.099Z,101385.84
2022-10-18T06:53:19.120Z,101385.50
2022-10-18T06:55:47.012Z,101380.13
2022-10-18T06:58:14.014Z,101384.97
2022-10-18T07:00:41.342Z,101380.03
2022-10-18T07:03:08.428Z,101376.75
2022-10-18T07:05:35.425Z,101383.25
2022-10-18T07:08:02.425Z,101385.41
2022-10-18T07:10:29.477Z,101385.00
2022-10-18T07:13:13.592Z,101386.06
2022-10-18T07:15:44.009Z,101391.97
2022-10-18T07:18:11.165Z,101387.19
2022-10-18T07:20:38.347Z,101383.13
2022-10-18T07:23:08.592Z,101385.66
2022-10-18T07:25:36.233Z,101390.53
2022-10-18T07:28:03.210Z,101395.41
2022-10-18T07:30:30.472Z,101383.72
2022-10-18T07:32:57.469Z,101388.28
2022-10-18T07:35:24.397Z,101385.00
2022-10-18T07:37:52.779Z,101374.94
2022-10-18T07:40:19.743Z,101374.59
2022-10-18T07:42:46.757Z,101382.09
2022-10-18T07:45:13.961Z,101369.44
2022-10-18T07:47:41.456Z,101368.63
2022-10-18T07:50:09.251Z,101364.50
2022-10-18T07:52:36.296Z,101369.06
2022-10-18T07:55:03.457Z,101363.63
2022-10-18T07:57:30.567Z,101369.06
2022-10-18T07:59:57.882Z,101359.31
2022-10-18T08:02:24.977Z,101360.34
2022-10-18T08:04:51.976Z,101353.47
2022-10-18T08:07:18.997Z,101350.78
2022-10-18T08:09:46.077Z,101353.91
2022-10-18T08:12:13.305Z,101350.38
2022-10-18T08:14:40.334Z,101334.56
2022-10-18T08:17:07.554Z,101335.81
2022-10-18T08:19:34.535Z,101339.13
2022-10-18T08:22:01.620Z,101336.81
2022-10-18T08:24:28.648Z,101331.81
2022-10-18T08:26:55.584Z,101333.47
2022-10-18T08:29:25.877Z,101336.13
2022-10-18T08:31:53.908Z,101329.25
2022-10-18T08:34:21.058Z,101325.91
2022-10-18T08:36:48.033Z,101314.81
2022-10-18T08:39:14.980Z,101327.22
2022-10-18T08:42:03.723Z,101317.16
2022-10-18T08:44:32.326Z,101311.75
2022-10-18T08:47:00.953Z,101313.38
2022-10-18T08:49:47.857Z,101312.13
2022-10-18T08:52:53.109Z,101313.81
2022-10-18T08:55:36.724Z,101307.31
2022-10-18T08:58:12.917Z,101308.28
2022-10-18T09:00:43.282Z,101301.19
2022-10-18T09:03:47.817Z,101283.16
2022-10-18T09:06:39.158Z,101282.13
2022-10-18T09:09:28.047Z,101282.28
2022-10-18T09:12:16.776Z,101275.91
2022-10-18T09:14:46.981Z,101271.28
2022-10-18T09:17:43.326Z,101267.88
2022-10-18T09:20:22.567Z,101264.41
2022-10-18T09:22:54.184Z,101259.06
2022-10-18T09:25:23.045Z,101264.38
2022-10-18T09:28:01.284Z,101263.16
2022-10-18T09:30:59.853Z,101261.53
2022-10-18T09:33:58.523Z,101264.63
2022-10-18T09:36:37.261Z,101261.47
2022-10-18T09:39:22.753Z,101267.09
2022-10-18T09:42:03.542Z,101261.06
2022-10-18T09:44:36.182Z,101260.50
2022-10-18T09:47:17.152Z,101265.00
2022-10-18T09:50:00.942Z,101266.38
2022-10-18T09:52:34.036Z,101256.19
2022-10-18T09:55:09.179Z,101248.38
2022-10-18T09:57:42.994Z,101240.28
2022-10-18T10:00:19.001Z,101242.94
2022-10-18T10:02:46.108Z,101241.16
2022-10-18T10:05:14.821Z,101238.19
2022-10-18T10:07:44.667Z,101236.94
2022-10-18T10:10:17.012Z,101235.38
2022-10-18T10:12:44.427Z,101229.84
2022-10-18T10:15:29.694Z,101237.63
2022-10-18T10:18:20.046Z,101223.66
2022-10-18T10:20:56.328Z,101226.09
2022-10-18T10:23:27.080Z,101218.66
2022-10-18T10:25:56.891Z,101217.72
2022-10-18T10:28:26.282Z,101218.31
2022-10-18T10:30:53.377Z,101211.69
2022-10-18T10:33:33.745Z,101211.59
2022-10-18T10:36:02.913Z,101207.41
2022-10-18T10:38:31.219Z,101201.59
2022-10-18T10:40:59.484Z,101198.19
2022-10-18T10:43:39.976Z,101192.41
2022-10-18T10:46:19.314Z,101186.56
2022-10-18T10:49:21.769Z,101188.22
2022-10-18T10:52:02.473Z,101190.72
2022-10-18T10:54:47.531Z,101183.25
2022-10-18T10:57:31.727Z,101180.75
2022-10-18T11:00:00.105Z,101180.16
2022-10-18T11:02:32.601Z,101171.81
2022-10-18T11:05:27.296Z,101172.78
2022-10-18T11:08:02.468Z,101161.75
2022-10-18T11:10:34.779Z,101163.25
2022-10-18T11:13:29.123Z,101155.81
2022-10-18T11:16:05.052Z,101148.56
2022-10-18T11:18:36.350Z,101148.44
2022-10-18T11:21:11.919Z,101138.38
2022-10-18T11:23:42.377Z,101136.25
2022-10-18T11:26:12.566Z,101131.78
2022-10-18T11:28:50.507Z,101132.53
2022-10-18T11:31:36.248Z,101135.03
2022-10-18T11:34:11.882Z,101129.25
2022-10-18T11:36:56.096Z,101122.91
2022-10-18T11:39:52.777Z,101117.63
2022-10-18T11:42:31.614Z,101101.94
2022-10-18T11:45:01.571Z,101104.00
2022-10-18T11:48:18.978Z,101093.84
2022-10-18T11:50:52.230Z,101095.31
2022-10-18T11:53:56.499Z,101094.31
2022-10-18T11:56:42.887Z,101082.22
2022-10-18T11:59:17.870Z,101085.88
2022-10-18T12:01:55.352Z,101079.19
2022-10-18T12:04:28.151Z,101075.84
2022-10-18T12:06:56.738Z,101075.97
2022-10-18T12:09:33.269Z,101073.13
2022-10-18T12:12:12.217Z,101069.75
2022-10-18T12:15:01.724Z,101057.22
2022-10-18T12:17:45.096Z,101065.63
2022-10-18T12:20:56.602Z,101052.91
2022-10-18T12:23:29.450Z,101040.53
2022-10-18T12:26:03.614Z,101044.91
2022-10-18T12:28:30.841Z,101039.78
2022-10-18T12:31:12.411Z,101036.59
2022-10-18T12:33:44.038Z,101032.47
2022-10-18T12:36:21.976Z,101020.78
2022-10-18T12:39:12.850Z,101025.63
2022-10-18T12:41:39.934Z,101031.97
2022-10-18T12:44:34.541Z,101023.00
2022-10-18T12:47:04.530Z,101019.69
2022-10-18T12:49:35.598Z,101019.00
2022-10-18T12:52:06.687Z,101009.03
2022-10-18T12:54:39.407Z,101008.41
2022-10-18T12:57:22.293Z,101010.38
2022-10-18T12:59:49.863Z,101007.53
2022-10-18T13:02:22.922Z,100995.22
2022-10-18T13:04:50.278Z,100999.38
2022-10-18T13:07:21.155Z,100993.47
2022-10-18T13:10:10.172Z,100990.75
2022-10-18T13:13:39.879Z,100987.59
2022-10-18T13:16:12.657Z,100984.91
2022-10-18T13:18:53.132Z,100974.41
2022-10-18T13:21:46.336Z,100972.34
2022-10-18T13:25:04.287Z,100968.19
2022-10-18T13:27:59.886Z,100969.13
2022-10-18T13:30:52.920Z,100972.34
2022-10-18T13:33:33.500Z,100973.50
2022-10-18T13:36:32.988Z,100971.31
2022-10-18T13:39:05.238Z,100969.88
2022-10-18T13:41:58.416Z,100965.06
2022-10-18T13:44:39.634Z,100958.94
2022-10-18T13:47:07.262Z,100958.69
2022-10-18T13:49:40.649Z,100950.88
2022-10-18T13:52:26.330Z,100952.47
2022-10-18T13:55:08.472Z,100950.56
2022-10-18T13:57:47.571Z,100957.63
2022-10-18T14:00:35.438Z,100951.34
2022-10-18T14:03:54.965Z,100940.63
2022-10-18T14:06:43.776Z,100942.94
2022-10-18T14:12:27.743Z,100946.56
2022-10-18T14:15:03.896Z,100939.97
2022-10-18T14:18:06.864Z,100947.91
2022-10-18T14:21:01.405Z,100935.09
2022-10-18T14:23:43.543Z,100927.94
2022-10-18T14:26:19.083Z,100939.88
2022-10-18T14:29:01.728Z,100934.94
2022-10-18T14:31:28.909Z,100934.94
2022-10-18T14:33:58.715Z,100935.78
2022-10-18T14:36:30.044Z,100930.84
2022-10-18T14:39:00.461Z,100933.00
2022-10-18T14:41:29.985Z,100933.13
2022-10-18T14:44:28.145Z,100933.13
2022-10-18T14:47:16.598Z,100927.34
2022-10-18T14:49:45.283Z,100927.25
2022-10-18T14:52:26.617Z,100928.34
2022-10-18T14:54:58.280Z,100922.81
2022-10-18T14:57:32.010Z,100918.19
2022-10-18T15:00:03.288Z,100923.63
2022-10-18T15:02:33.586Z,100924.63
2022-10-18T15:05:09.840Z,100916.22
2022-10-18T15:07:37.454Z,100911.06
2022-10-18T15:10:05.670Z,100914.59
2022-10-18T15:13:04.887Z,100916.72
2022-10-18T15:15:32.444Z,100915.25
2022-10-18T15:18:00.541Z,100911.19
2022-10-18T15:20:32.036Z,100914.72
2022-10-18T15:23:23.927Z,100916.50
2022-10-18T15:26:04.163Z,100911.69
2022-10-18T15:28:40.275Z,100906.63
2022-10-18T15:31:22.075Z,100903.53
2022-10-18T15:33:49.303Z,100897.38
2022-10-18T15:36:29.444Z,100903.84
2022-10-18T15:39:14.939Z,100902.28
2022-10-18T15:41:51.895Z,100904.00
2022-10-18T15:44:24.063Z,100901.69
2022-10-18T15:46:56.724Z,100902.69
2022-10-18T15:49:45.776Z,100901.75
2022-10-18T15:52:21.570Z,100910.59
2022-10-18T15:57:36.553Z,100908.50
2022-10-18T16:00:08.219Z,100899.25
2022-10-18T16:02:45.389Z,100901.56
2022-10-18T16:05:19.217Z,100905.41
2022-10-18T16:07:51.490Z,100913.47
2022-10-18T16:10:18.646Z,100903.75
2022-10-18T16:12:45.835Z,100911.59
2022-10-18T16:15:13.020Z,100902.69
2022-10-18T16:17:40.190Z,100901.47
2022-10-18T16:20:21.983Z,100899.41
2022-10-18T16:22:49.264Z,100911.00
2022-10-18T16:25:16.938Z,100924.53
2022-10-18T16:27:44.109Z,100915.94
2022-10-18T16:30:18.558Z,100914.16
2022-10-18T16:32:46.725Z,100923.81
2022-10-18T16:35:13.919Z,100928.28
2022-10-18T16:37:41.081Z,100930.34
2022-10-18T16:40:25.975Z,100935.59
2022-10-18T16:42:53.075Z,100928.31
2022-10-18T16:45:20.217Z,100930.88
2022-10-18T16:47:47.300Z,100939.28
2022-10-18T16:50:17.661Z,100944.13
2022-10-18T16:52:45.029Z,100944.63
2022-10-18T16:55:21.274Z,100946.75
2022-10-18T16:57:49.047Z,100949.25
2022-10-18T17:00:22.848Z,100940.84
2022-10-18T17:02:50.180Z,100951.84
2022-10-18T17:05:18.203Z,100948.06
2022-10-18T17:07:47.072Z,100952.91
2022-10-18T17:10:21.263Z,100951.47
2022-10-18T17:12:48.332Z,100949.28
2022-10-18T17:15:15.322Z,100945.63
2022-10-18T17:17:42.439Z,100948.31
2022-10-18T17:20:26.266Z,100949.47
2022-10-18T17:22:54.356Z,100958.78
2022-10-18T17:25:21.420Z,100951.59
2022-10-18T17:27:48.659Z,100959.22
2022-10-18T17:30:15.775Z,100951.88
2022-10-18T17:32:45.570Z,100962.66
2022-10-18T17:35:12.868Z,100966.53
2022-10-18T17:37:44.027Z,100965.88
2022-10-18T17:40:13.106Z,100976.78
2022-10-18T17:42:40.098Z,100977.22
2022-10-18T17:45:07.709Z,100969.09
2022-10-18T17:47:35.039Z,100967.41
2022-10-18T17:50:02.339Z,100967.19
2022-10-18T17:52:29.266Z,100971.97
2022-10-18T17:54:56.356Z,100965.31
2022-10-18T17:57:23.345Z,100977.50
2022-10-18T17:59:50.476Z,100966.81
2022-10-18T18:02:17.438Z,100972.53
2022-10-18T18:04:44.656Z,100976.38
2022-10-18T18:07:11.594Z,100982.00
2022-10-18T18:09:38.956Z,100986.25
2022-10-18T18:12:06.080Z,100982.63
2022-10-18T18:14:33.178Z,100979.25
2022-10-18T18:17:01.628Z,100972.25
2022-10-18T18:19:28.787Z,100973.38
2022-10-18T18:21:55.961Z,100969.28
2022-10-18T18:24:24.899Z,100973.94
2022-10-18T18:26:55.579Z,100965.06
2022-10-18T18:29:24.381Z,100966.03
2022-10-18T18:31:55.746Z,100966.06
2022-10-18T18:34:23.800Z,100968.22
2022-10-18T18:36:52.656Z,100965.13
2022-10-18T18:39:29.791Z,100966.69
2022-10-18T18:41:56.861Z,100966.44
2022-10-18T18:44:25.219Z,100960.19
2022-10-18T18:46:52.291Z,100956.47
2022-10-18T18:49:19.443Z,100963.53
2022-10-18T18:51:46.492Z,100958.59
2022-10-18T18:54:15.159Z,100957.63
2022-10-18T18:56:42.744Z,100951.53
2022-10-18T18:59:13.284Z,100951.63
2022-10-18T19:01:41.522Z,100940.94
2022-10-18T19:04:09.561Z,100947.66
2022-10-18T19:06:41.017Z,100938.50
2022-10-18T19:09:25.984Z,100947.06
2022-10-18T19:11:56.768Z,100948.97
2022-10-18T19:14:25.879Z,100942.94
2022-10-18T19:16:59.253Z,100952.06
2022-10-18T19:19:28.366Z,100949.94
2022-10-18T19:21:57.917Z,100950.44
2022-10-18T19:24:28.839Z,100946.72
2022-10-18T19:27:01.623Z,100952.25
2022-10-18T19:29:31.856Z,100945.44
2022-10-18T19:32:02.575Z,100947.63
2022-10-18T19:34:30.503Z,100946.97
2022-10-18T19:36:58.346Z,100952.06
2022-10-18T19:39:28.137Z,100947.38
2022-10-18T19:41:58.226Z,100944.94
2022-10-18T19:44:28.611Z,100954.34
2022-10-18T19:46:55.863Z,100957.53
2022-10-18T19:49:23.034Z,100954.00
2022-10-18T19:51:50.125Z,100955.47
2022-10-18T19:54:17.180Z,100962.38
2022-10-18T19:56:44.456Z,100961.16
2022-10-18T19:59:13.079Z,100968.03
2022-10-18T20:01:40.491Z,100962.00
2022-10-18T20:04:08.632Z,100960.13
2022-10-18T20:06:37.298Z,100965.91
2022-10-18T20:09:08.288Z,100967.41
2022-10-18T20:11:36.324Z,100966.41
2022-10-18T20:14:05.548Z,100961.63
2022-10-18T20:16:34.055Z,100965.56
2022-10-18T20:19:03.549Z,100962.31
2022-10-18T20:21:32.719Z,100967.75
2022-10-18T20:23:59.724Z,100956.38
2022-10-18T20:26:26.855Z,100944.31
2022-10-18T20:28:59.623Z,100948.03
2022-10-18T20:31:29.696Z,100944.53
2022-10-18T20:34:02.013Z,100962.50
2022-10-18T20:36:31.219Z,100957.97
2022-10-18T20:38:59.263Z,100965.88
2022-10-18T20:41:34.392Z,100966.75
2022-10-18T20:44:04.376Z,100963.81
2022-10-18T20:46:33.765Z,100964.63
2022-10-18T20:49:01.686Z,100967.97
2022-10-18T20:51:29.092Z,100967.72
2022-10-18T20:53:56.277Z,100966.09
2022-10-18T20:56:26.769Z,100959.75
2022-10-18T20:58:56.737Z,100956.88
2022-10-18T21:01:26.088Z,100955.22
2022-10-18T21:03:55.459Z,100951.22
2022-10-18T21:06:28.496Z,100952.47
2022-10-18T21:09:01.113Z,100946.69
2022-10-18T21:11:30.010Z,100949.03
2022-10-18T21:14:02.221Z,100947.38
2022-10-18T21:16:30.442Z,100946.34
2022-10-18T21:19:02.406Z,100945.75
2022-10-18T21:21:29.523Z,100953.25
2022-10-18T21:23:56.523Z,100957.81
2022-10-18T21:26:26.495Z,100962.34
2022-10-18T21:28:54.364Z,100950.94
2022-10-18T21:31:24.109Z,100948.00
2022-10-18T21:33:56.604Z,100946.38
2022-10-18T21:36:24.397Z,100941.19
2022-10-18T21:38:51.805Z,100944.28
2022-10-18T21:41:20.361Z,100938.91
2022-10-18T21:43:50.129Z,100951.56
2022-10-18T21:46:18.673Z,100949.09
2022-10-18T21:48:47.710Z,100953.88
2022-10-18T21:51:17.838Z,100947.88
2022-10-18T21:53:48.177Z,100944.53
2022-10-18T21:56:20.429Z,100941.81
2022-10-18T21:58:47.893Z,100931.69
2022-10-18T22:01:17.775Z,100940.38
2022-10-18T22:03:45.256Z,100940.38
2022-10-18T22:06:14.891Z,100933.53
2022-10-18T22:08:44.538Z,100936.84
2022-10-18T22:11:13.408Z,100944.72
2022-10-18T22:13:41.540Z,100942.63
2022-10-18T22:16:11.169Z,100947.81
2022-10-18T22:18:38.205Z,100941.81
2022-10-18T22:21:07.737Z,100940.56
2022-10-18T22:23:36.854Z,100945.50
2022-10-18T22:26:12.994Z,100943.66
2022-10-18T22:28:41.713Z,100935.56
2022-10-18T22:31:20.708Z,100935.34
2022-10-18T22:33:53.309Z,100940.94
2022-10-18T22:36:20.502Z,100939.06
2022-10-18T22:38:47.611Z,100942.41
2022-10-18T22:41:14.775Z,100944.28
2022-10-18T22:43:42.355Z,100947.16
2022-10-18T22:46:12.503Z,100935.75
2022-10-18T22:48:40.040Z,100935.97
2022-10-18T22:51:08.155Z,100929.53
2022-10-18T22:53:36.147Z,100919.38
2022-10-18T22:56:03.831Z,100919.78
2022-10-18T22:58:31.024Z,100914.59
2022-10-18T23:01:15.938Z,100914.81
2022-10-18T23:03:43.277Z,100932.66
2022-10-18T23:06:21.497Z,100925.16
2022-10-18T23:08:49.360Z,100920.38
2022-10-18T23:11:16.812Z,100918.53
2022-10-18T23:13:43.972Z,100915.41
2022-10-18T23:16:11.238Z,100918.28
2022-10-18T23:21:10.523Z,100912.50
2022-10-18T23:23:40.095Z,100922.47
2022-10-18T23:26:09.915Z,100916.00
2022-10-18T23:28:38.450Z,100928.59
2022-10-18T23:31:12.022Z,100919.44
2022-10-18T23:33:40.203Z,100918.44
2022-10-18T23:36:08.701Z,100923.41
2022-10-18T23:38:36.908Z,100920.91
2022-10-18T23:41:05.580Z,100923.59
2022-10-18T23:43:32.767Z,100924.03
2022-10-18T23:46:00.295Z,100927.13
2022-10-18T23:48:27.621Z,100921.09
2022-10-18T23:50:54.668Z,100929.81
2022-10-18T23:53:22.083Z,100922.97
2022-10-18T23:56:00.211Z,100928.13
2022-10-18T23:58:28.975Z,100926.09
